This is the latest recevied weather packets stored in our database for station/object N6SPP. If no packets are shown the sender has not sent any weather packets the latest 10 day(s).
| Time | Temp. | Humidity | Pressure | Rain* | Wind** | Luminosity | Snow |
|---|---|---|---|---|---|---|---|
| 1778018043 | 17.78° C | 71% | 1017.7 hPa | 0 mm | - | 387 W/m² | - |
| 1778017741 | 17.78° C | 71% | 1017.7 hPa | 0 mm | - | 346 W/m² | - |
| 1778017439 | 18.33° C | 70% | 1017.5 hPa | 0 mm | - | 356 W/m² | - |
| 1778017136 | 17.78° C | 69% | 1017.7 hPa | 0 mm | - | 455 W/m² | - |
| 1778016833 | 17.22° C | 71% | 1017.8 hPa | 0 mm | - | 392 W/m² | - |
| 1778016529 | 16.67° C | 74% | 1017.8 hPa | 0 mm | - | 336 W/m² | - |
| 1778016227 | 16.67° C | 74% | 1017.9 hPa | 0 mm | - | 189 W/m² | - |
| 1778015922 | 16.67° C | 75% | 1017.7 hPa | 0 mm | - | 169 W/m² | - |
| 1778015620 | 16.67° C | 74% | 1017.8 hPa | 0 mm | - | 150 W/m² | - |
| 1778015317 | 16.67° C | 75% | 1017.7 hPa | 0 mm | - | 151 W/m² | - |
| 1778015014 | 16.67° C | 73% | 1017.6 hPa | 0 mm | - | 186 W/m² | - |
| 1778014710 | 17.22° C | 72% | 1017.8 hPa | 0 mm | - | 170 W/m² | - |
| 1778014409 | 17.22° C | 72% | 1017.7 hPa | 0 mm | - | 184 W/m² | - |
| 1778014105 | 17.22° C | 72% | 1017.9 hPa | 0 mm | - | 199 W/m² | - |
| 1778013803 | 16.67° C | 73% | 1018 hPa | 0 mm | - | 252 W/m² | - |
| 1778013500 | 17.22° C | 72% | 1017.9 hPa | 0 mm | - | 289 W/m² | - |
| 1778013197 | 17.22° C | 72% | 1018.2 hPa | 0 mm | - | 360 W/m² | - |
| 1778012893 | 16.11° C | 74% | 1017.9 hPa | 0 mm | - | 403 W/m² | - |
| 1778012588 | 16.67° C | 74% | 1018.1 hPa | 0 mm | - | 278 W/m² | - |
| 1778012280 | 16.67° C | 74% | 1018.1 hPa | 0 mm | - | 230 W/m² | - |
| 1778011977 | 16.11° C | 75% | 1018.1 hPa | 0 mm | - | 224 W/m² | - |
| 1778011676 | 16.11° C | 76% | 1017.9 hPa | 0 mm | - | 219 W/m² | - |
| 1778011372 | 16.11° C | 76% | 1018.3 hPa | 0 mm | - | 199 W/m² | - |
| 1778011068 | 15.56° C | 76% | 1018.1 hPa | 0 mm | - | 212 W/m² | - |
| 1778010766 | 15.56° C | 76% | 1018.2 hPa | 0 mm | - | 140 W/m² | - |
* Rain latest hour (hover to see other rain measurements)
** Current wind speed in m/s (hover to see current wind gust speed)